Lodge Grass, Montana
Current Conditions -  °F | °C
As of 10:53 PM on Friday 28 Nov 2014 (Local Time) from KSHR Reporting Station
Clear Clear  
Wind Chill: 57°   Ceiling: Unl
Heat Index: 57°   Visibility: 10mi
Dew Point: 15°   Wind: 30mph
Humidity: 19%   Direction: 250°WSW
Pressure: 29.39"   Gusts: 51mph
Location:  45.31°N, 107.36°W
Report Text: KSHR 290553Z AUTO 25026G44KT 10SM CLR 14/M09 A2939 RMK AO2 PK WND 24055/0520 SLP930 T01391094 10167 20117 55024 TSNO
Loading
Personal Weather Stations






























Interactive Weather Map New forecast layout! Learn more

10-Day Weather Forecast

Advertisements
Track Severe Weather on mobile